Have a Safe July 4th! 

Flight Track Log - Related Links

Times and Time Zones

All times are in EDT time to prevent confusion due to time zone crossing. See the UAL3756 flight status page for this flight to view local times or setup timezone preferences in your user account.

Time Position Orientation Groundspeed Altitude Reporting Facility
EDT Latitude Longitude Course Direction KTS MPH feet Rate Location/Type
Fri 02:53:20 PM 44.4811 -73.2983 255° West 227 261 4,600  Level Boston Center
Fri 02:54:00 PM 44.3900 -73.5912 253° West  Level FlightAware Approximate
Fri 02:54:32 PM 44.4681 -73.3767 257° West 249 287 6,800  Level Boston Center
Fri 02:55:00 PM 44.3614 -73.7373 259° West  Level FlightAware Approximate
Fri 02:55:32 PM 44.4439 -73.5044 255° West 277 319 10,100  Level Boston Center
Fri 02:56:00 PM 44.3402 -73.8859 259° West  Level FlightAware Approximate
Fri 02:56:32 PM 44.4242 -73.6144 256° West 294 338 12,600  Level Boston Center
Fri 02:57:00 PM 44.3145 -74.0330 255° West  Level FlightAware Approximate
Fri 02:57:32 PM 44.3997 -73.7475 256° West 310 357 15,400  Level Boston Center
Fri 02:58:00 PM 44.2866 -74.1793 255° West  Level FlightAware Approximate
Fri 02:58:32 PM 44.3775 -73.8750 256° West 322 371 17,600  Level Boston Center
Fri 02:59:32 PM 44.3550 -74.0022 256° West 334 384 19,400 1,300 Climbing Boston Center
Fri 03:00:32 PM 44.3300 -74.1408 256° West 348 400 20,200 1,200 Climbing Boston Center
Fri 03:01:32 PM 44.3028 -74.2881 256° West 379 436 21,800 1,500 Climbing Boston Center
Fri 03:02:32 PM 44.2708 -74.4464 254° West 404 465 23,200 1,400 Climbing Boston Center
Fri 03:03:32 PM 44.2431 -74.5992 256° West 419 482 24,600 1,400 Climbing Boston Center
Fri 03:04:32 PM 44.2128 -74.7631 256° West 431 496 26,000 1,300 Climbing Boston Center
Fri 03:05:32 PM 44.1822 -74.9269 255° West 436 502 27,200 1,200 Climbing Boston Center
Fri 03:06:32 PM 44.1517 -75.0936 256° West 436 502 28,400 1,050 Climbing Boston Center
Fri 03:07:32 PM 44.1183 -75.2569 254° West 441 507 29,300 800 Climbing Boston Center
Fri 03:08:32 PM 44.0875 -75.4144 255° West 454 522 30,000 800 Climbing Boston Center
Fri 03:09:32 PM 44.0536 -75.5833 254° West 459 528 30,900 800 Climbing Boston Center
Fri 03:10:32 PM 44.0197 -75.7575 255° West 459 528 31,600 1,000 Climbing Boston Center
Fri 03:11:32 PM 43.9853 -75.9319 255° West 464 534 32,900 1,150 Climbing Boston Center
Fri 03:12:32 PM 43.9550 -76.0975 256° West 469 540 33,900 900 Climbing Boston Center
Fri 03:13:32 PM 43.9392 -76.2694 263° West 464 534 34,700 1,000 Climbing Boston Center
Fri 03:14:32 PM 43.9228 -76.4386 262° West 459 528 35,900 441 Climbing Boston Center
Fri 03:16:29 PM 43.8833 -76.7667 261° West 450 518 36,000 34 Climbing Toronto Center
Fri 03:17:29 PM 43.8667 -76.9500 263° West 450 518 36,000  Level Toronto Center
Fri 03:18:29 PM 43.8333 -77.1167 255° West 450 518 36,000  Level Toronto Center
Fri 03:19:29 PM 43.8167 -77.2833 262° West 440 506 36,000  Level Toronto Center
Fri 03:20:29 PM 43.8167 -77.4667 270° West 450 518 36,000  Level Toronto Center
Fri 03:21:29 PM 43.8000 -77.6167 261° West 450 518 36,000  Level Toronto Center
Fri 03:22:29 PM 43.7667 -77.8167 257° West 450 518 36,000  Level Toronto Center
Fri 03:23:29 PM 43.7500 -77.9667 261° West 450 518 36,000  Level Toronto Center
Fri 03:24:29 PM 43.7333 -78.1333 262° West 450 518 36,000  Level Toronto Center
Fri 03:25:29 PM 43.7167 -78.3000 262° West 450 518 36,000  Level Toronto Center
Fri 03:26:29 PM 43.7000 -78.4833 263° West 450 518 36,000  Level Toronto Center
Fri 03:27:29 PM 43.6833 -78.6333 261° West 450 518 36,000  Level Toronto Center
Fri 03:28:29 PM 43.6667 -78.8333 263° West 450 518 36,000  Level Toronto Center
Fri 03:29:29 PM 43.6500 -78.9833 261° West 450 518 36,000  Level Toronto Center
Fri 03:30:29 PM 43.6333 -79.1667 263° West 450 518 36,000  Level Toronto Center
Fri 03:31:29 PM 43.6167 -79.3333 262° West 450 518 36,000  Level Toronto Center
Fri 03:32:29 PM 43.6000 -79.5167 263° West 450 518 36,000  Level Toronto Center
Fri 03:33:29 PM 43.5833 -79.6833 262° West 450 518 36,000  Level Toronto Center
Fri 03:34:29 PM 43.5667 -79.8333 261° West 460 529 36,000  Level Toronto Center
Fri 03:35:29 PM 43.5500 -80.0167 263° West 450 518 36,000  Level Toronto Center
Fri 03:36:29 PM 43.5333 -80.1833 262° West 450 518 36,000  Level Toronto Center
Fri 03:37:29 PM 43.5167 -80.3667 263° West 450 518 36,000  Level Toronto Center
Fri 03:38:29 PM 43.5000 -80.5333 262° West 450 518 36,000  Level Toronto Center
Fri 03:39:29 PM 43.4833 -80.7167 263° West 450 518 36,000  Level Toronto Center
Fri 03:40:29 PM 43.4500 -80.8667 253° West 450 518 36,000  Level Toronto Center
Fri 03:41:29 PM 43.4333 -81.0500 263° West 450 518 36,000  Level Toronto Center
Fri 03:42:29 PM 43.4000 -81.2167 255° West 450 518 36,000  Level Toronto Center
Fri 03:43:29 PM 43.3833 -81.4000 263° West 450 518 36,000  Level Toronto Center
Fri 03:44:29 PM 43.3500 -81.5667 255° West 450 518 36,000  Level Toronto Center
Fri 03:45:29 PM 43.3333 -81.7167 261° West 450 518 36,000  Level Toronto Center
Fri 03:46:29 PM 43.3000 -81.8833 255° West 450 518 36,000  Level Toronto Center
Fri 03:47:29 PM 43.2667 -82.0667 256° West 450 518 36,000  Level Toronto Center
Fri 03:48:29 PM 43.2333 -82.2167 253° West 450 518 36,000  Level Toronto Center
Fri 03:49:29 PM 43.2000 -82.4000 256° West 450 518 36,000 -200 Level Toronto Center
Fri 03:50:29 PM 43.1833 -82.5667 262° West 440 506 35,600 -1,000 Descending Toronto Center
Fri 03:51:29 PM 43.1167 -82.6667 228° Southwest 400 460 34,000 -1,512 Descending Toronto Center
Fri 03:52:36 PM 43.0572 -82.8278 243° Southwest 410 472 32,400 -945 Descending Cleveland Center
Fri 03:53:36 PM 42.9981 -82.9733 241° Southwest 423 487 32,000 -200 Descending Cleveland Center
Fri 03:54:36 PM 42.9864 -83.1375 265° West 423 487 32,000  Level Cleveland Center
Fri 03:55:36 PM 42.9803 -83.3106 267° West 437 503 32,000  Level Cleveland Center
Fri 03:56:36 PM 42.9764 -83.4719 268° West 442 509 32,000  Level Cleveland Center
Fri 03:57:36 PM 42.9722 -83.6281 268° West 436 502 32,000  Level Cleveland Center
Fri 03:58:36 PM 42.9617 -83.7864 265° West 423 487 32,000  Level Cleveland Center
Fri 03:59:36 PM 42.9469 -83.9417 263° West 423 487 32,000  Level Cleveland Center
Fri 04:00:36 PM 42.9339 -84.1025 264° West 423 487 32,000  Level Cleveland Center
Fri 04:01:36 PM 42.9161 -84.2661 262° West 429 494 32,000  Level Cleveland Center
Fri 04:02:37 PM 42.9019 -84.4047 262° West 452 520 32,000  Level Chicago Center
Fri 04:03:39 PM 42.8819 -84.6139 263° West 465 535 32,000  Level Chicago Center
Fri 04:04:41 PM 42.8647 -84.7797 262° West 447 514 32,000  Level Chicago Center
Fri 04:05:43 PM 42.8467 -84.9458 262° West 444 511 32,000  Level Chicago Center
Fri 04:06:45 PM 42.8292 -85.1119 262° West 444 511 32,000 -532 Level Chicago Center
Fri 04:07:47 PM 42.8114 -85.2817 262° West 449 517 30,900 -1,258 Descending Chicago Center
Fri 04:08:49 PM 42.7908 -85.4611 261° West 474 545 29,400 -1,548 Descending Chicago Center
Fri 04:09:51 PM 42.7572 -85.6636 257° West 458 527 27,700 -1,161 Descending Chicago Center
Fri 04:10:53 PM 42.7269 -85.8308 256° West 454 522 27,000 -339 Descending Chicago Center
Fri 04:11:55 PM 42.6961 -85.9978 256° West 451 519 27,000 -816 Level Chicago Center
Fri 04:12:58 PM 42.6669 -86.1589 256° West 442 509 25,300 -2,064 Descending Chicago Center
Fri 04:14:00 PM 42.6369 -86.3128 255° West 424 488 22,700 -2,468 Descending Chicago Center
Fri 04:15:02 PM 42.6092 -86.4681 256° West 423 487 20,200 -1,306 Descending Chicago Center
Fri 04:16:04 PM 42.5803 -86.6181 255° West 410 472 20,000 -532 Descending Chicago Center
Fri 04:17:06 PM 42.5506 -86.7731 255° West 411 473 19,100 -1,403 Descending Chicago Center
Fri 04:18:08 PM 42.5039 -86.9386 249° West 397 457 17,100 -2,160 Descending Chicago Center
Fri 04:19:11 PM 42.4669 -87.0672 249° West 380 437 14,600 -2,419 Descending Chicago Center
Fri 04:20:12 PM 42.4311 -87.1958 249° West 369 425 12,100 -2,195 Descending Chicago Center
Fri 04:21:14 PM 42.3964 -87.3231 250° West 364 419 10,100 -1,016 Descending Chicago Center
Fri 04:22:16 PM 42.3628 -87.4456 250° West 350 403 10,000 -48 Descending Chicago Center
Fri 04:23:18 PM 42.3022 -87.5719 237° Southwest 343 395 10,000 -384 Level Chicago Center
Fri 04:24:21 PM 42.2425 -87.6358 218° Southwest 287 330 9,200 -1,296 Descending Chicago Center
Fri 04:25:23 PM 42.1842 -87.6953 217° Southwest 267 307 7,300 -1,065 Descending Chicago Center
Fri 04:26:25 PM 42.1283 -87.7556 219° Southwest 262 302 7,000 -130 Descending Chicago Center
Fri 04:26:55 PM 42.1000 -87.8000 229° Southwest 267 307 7,100  Climbing Chicago TRACON
Fri 04:27:55 PM 42.1000 -87.9167 270° West 295 339 7,000 -48 Descending Chicago TRACON
Fri 04:29:01 PM 42.1000 -88.0167 270° West 254 292 7,000 -200 Level Chicago TRACON
Fri 04:29:55 PM 42.1000 -88.1000 270° West 240 276 6,600 -587 Descending Chicago TRACON
Fri 04:30:33 PM 42.0911 -88.1508 257° West 251 289 6,100 -360 Descending Chicago Center
Fri 04:31:35 PM 42.0906 -88.2372 270° West 239 275 6,000 -484 Descending Chicago Center
Fri 04:32:37 PM 42.0911 -88.3269 271° West 240 276 5,100 -968 Descending Chicago Center
Fri 04:33:39 PM 42.0864 -88.4303 267° West 238 274 4,000 -532 Descending Chicago Center
Fri 04:34:41 PM 42.0458 -88.4644 212° Southwest 222 255 4,000  Level Chicago Center
Fri 04:35:44 PM 41.9978 -88.4367 157° South 195 224 4,000 48 Level Chicago Center
Fri 04:36:46 PM 41.9842 -88.3783 107° East 182 209 4,100  Climbing Chicago Center
Fri 04:37:48 PM 41.9792 -88.3128 96° East 179 206 4,000 -48 Descending Chicago Center
Fri 04:38:50 PM 41.9856 -88.2331 84° East 177 204 4,000  Level Chicago Center
Fri 04:39:52 PM 41.9844 -88.1631 91° East 186 214 4,000 -242 Level Chicago Center
Fri 04:40:54 PM 41.9836 -88.1000 91° East 175 201 3,500 -871 Descending Chicago Center
Fri 04:41:56 PM 41.9833 -88.0167 90° East 176 203 2,200 -1,258 Descending Chicago TRACON

Login

Don't have an account? Register now (free) for customized features, flight alerts, and more!